createdAt,value
2019-04-22T00:01:34.536Z,57.70
2019-04-22T00:04:09.075Z,57.40
2019-04-22T00:06:58.376Z,57.40
2019-04-22T00:09:30.939Z,58.00
2019-04-22T00:12:06.088Z,57.50
2019-04-22T00:14:28.324Z,57.50
2019-04-22T00:19:43.323Z,57.60
2019-04-22T00:22:18.220Z,58.10
2019-04-22T00:24:46.340Z,57.80
2019-04-22T00:27:20.700Z,57.30
2019-04-22T00:32:24.278Z,58.30
2019-04-22T00:34:56.002Z,59.70
2019-04-22T00:37:29.985Z,60.70
2019-04-22T00:40:16.463Z,61.30
2019-04-22T00:42:29.224Z,61.60
2019-04-22T00:47:32.447Z,62.60
2019-04-22T00:50:18.969Z,62.50
2019-04-22T00:52:34.294Z,63.90
2019-04-22T00:57:41.541Z,63.80
2019-04-22T01:00:11.964Z,64.60
2019-04-22T01:02:41.596Z,65.70
2019-04-22T01:05:14.903Z,66.50
2019-04-22T01:07:44.547Z,67.10
2019-04-22T01:10:19.049Z,68.60
2019-04-22T01:12:44.360Z,70.00
2019-04-22T01:15:23.613Z,71.70
2019-04-22T01:17:53.012Z,71.60
2019-04-22T01:20:45.371Z,71.30
2019-04-22T01:22:52.154Z,72.10
2019-04-22T01:25:19.230Z,73.60
2019-04-22T01:27:48.877Z,72.00
2019-04-22T01:30:19.700Z,71.40
2019-04-22T01:32:41.825Z,70.90
2019-04-22T01:35:26.306Z,71.00
2019-04-22T01:37:58.218Z,70.20
2019-04-22T01:40:39.087Z,70.90
2019-04-22T01:43:14.726Z,71.80
2019-04-22T01:45:39.871Z,72.30
2019-04-22T01:48:11.174Z,72.50
2019-04-22T01:50:48.558Z,72.20
2019-04-22T01:53:22.254Z,70.70
2019-04-22T01:58:11.081Z,69.90
2019-04-22T02:00:53.456Z,69.80
2019-04-22T02:03:26.531Z,68.90
2019-04-22T02:05:56.566Z,68.90
2019-04-22T02:08:31.271Z,68.10
2019-04-22T02:10:54.802Z,68.20
2019-04-22T02:13:30.844Z,67.90
2019-04-22T02:16:03.510Z,68.20
2019-04-22T02:18:39.392Z,67.90
2019-04-22T02:21:01.710Z,68.40
2019-04-22T02:23:49.008Z,67.60
2019-04-22T02:26:12.660Z,67.70
2019-04-22T02:36:22.911Z,67.80
2019-04-22T02:39:08.004Z,68.40
2019-04-22T02:49:04.124Z,69.00
2019-04-22T02:51:28.539Z,69.20
2019-04-22T02:54:27.078Z,69.40
2019-04-22T03:06:34.680Z,69.00
2019-04-22T03:16:48.813Z,69.00
2019-04-22T03:26:48.968Z,69.40
2019-04-22T03:35:37.134Z,70.70
2019-04-22T03:40:22.418Z,72.40
2019-04-22T03:45:28.095Z,73.10
2019-04-22T03:47:53.588Z,73.70
2019-04-22T03:50:28.182Z,73.60
2019-04-22T03:52:56.569Z,73.90
2019-04-22T03:55:25.595Z,74.40
2019-04-22T03:57:53.637Z,74.00
2019-04-22T04:00:36.042Z,74.30
2019-04-22T04:05:37.647Z,75.10
2019-04-22T04:13:12.221Z,75.30
2019-04-22T04:15:32.798Z,76.50
2019-04-22T04:17:59.425Z,77.40
2019-04-22T04:20:36.901Z,77.00
2019-04-22T04:28:29.774Z,76.80
2019-04-22T04:30:42.867Z,75.70
2019-04-22T04:33:21.184Z,76.00
2019-04-22T04:38:12.488Z,76.60
2019-04-22T04:41:06.225Z,76.50
2019-04-22T04:43:33.234Z,76.80
2019-04-22T04:51:11.821Z,79.20
2019-04-22T04:55:51.753Z,80.20
2019-04-22T04:58:47.628Z,80.40
2019-04-22T05:03:39.244Z,79.50
2019-04-22T05:06:09.221Z,79.40
2019-04-22T05:08:54.410Z,78.10
2019-04-22T05:11:05.580Z,76.80
2019-04-22T05:13:39.723Z,76.00
2019-04-22T05:18:41.253Z,75.00
2019-04-22T05:23:50.569Z,74.60
2019-04-22T05:26:12.512Z,74.90
2019-04-22T05:28:35.234Z,74.80
2019-04-22T05:31:16.015Z,74.70
2019-04-22T05:33:46.028Z,75.80
2019-04-22T05:36:14.376Z,75.80
2019-04-22T05:38:50.139Z,73.90
2019-04-22T05:41:16.272Z,72.20
2019-04-22T05:43:50.058Z,71.70
2019-04-22T05:46:20.657Z,72.40
2019-04-22T05:48:53.913Z,72.10
2019-04-22T05:51:23.947Z,72.10
2019-04-22T05:53:53.903Z,71.30
2019-04-22T05:56:27.793Z,71.00
2019-04-22T05:58:58.239Z,71.60
2019-04-22T06:04:03.937Z,71.30
2019-04-22T06:06:32.374Z,70.70
2019-04-22T06:11:29.481Z,72.40
2019-04-22T06:14:04.505Z,71.00
2019-04-22T06:16:38.149Z,71.60
2019-04-22T06:19:12.576Z,70.30
2019-04-22T06:21:38.328Z,70.40
2019-04-22T06:24:16.720Z,69.50
2019-04-22T06:27:01.533Z,70.50
2019-04-22T06:29:15.932Z,70.00
2019-04-22T06:32:10.909Z,70.20
2019-04-22T06:34:17.679Z,69.40
2019-04-22T06:36:51.077Z,68.00
2019-04-22T06:39:24.239Z,68.50
2019-04-22T06:44:25.969Z,68.20
2019-04-22T06:46:52.619Z,68.90
2019-04-22T06:49:33.430Z,66.80
2019-04-22T06:51:53.717Z,65.90
2019-04-22T06:54:28.316Z,66.00
2019-04-22T07:02:04.032Z,64.00
2019-04-22T07:04:30.366Z,64.60
2019-04-22T07:07:02.246Z,64.80
2019-04-22T07:12:06.404Z,63.90
2019-04-22T07:14:35.193Z,63.70
2019-04-22T07:17:07.508Z,63.90
2019-04-22T07:19:37.165Z,63.40
2019-04-22T07:24:47.851Z,62.50
2019-04-22T07:27:14.666Z,61.90
2019-04-22T07:29:46.790Z,63.60
2019-04-22T07:32:15.351Z,63.10
2019-04-22T07:37:28.302Z,59.80
2019-04-22T07:40:03.240Z,59.60
2019-04-22T07:42:24.559Z,59.90
2019-04-22T07:45:01.114Z,59.90
2019-04-22T07:47:37.765Z,58.40
2019-04-22T07:49:59.437Z,59.10
2019-04-22T07:52:27.844Z,58.50
2019-04-22T07:54:58.327Z,59.90
2019-04-22T07:57:47.157Z,58.50
2019-04-22T08:00:04.101Z,58.30
2019-04-22T08:02:39.162Z,56.80
2019-04-22T08:07:34.630Z,55.10
2019-04-22T08:12:38.981Z,55.50
2019-04-22T08:15:06.072Z,56.00
2019-04-22T08:20:16.634Z,56.10
2019-04-22T08:22:47.663Z,52.30
2019-04-22T08:25:12.561Z,52.40
2019-04-22T08:27:46.746Z,51.10
2019-04-22T08:30:23.597Z,51.30
2019-04-22T08:32:48.930Z,50.80
2019-04-22T08:35:20.255Z,51.80
2019-04-22T08:37:51.225Z,50.60
2019-04-22T08:42:56.766Z,48.90
2019-04-22T08:45:31.783Z,50.40
2019-04-22T08:47:55.312Z,48.90
2019-04-22T08:50:29.829Z,49.90
2019-04-22T08:53:05.757Z,46.90
2019-04-22T08:55:31.350Z,47.30
2019-04-22T08:58:16.070Z,47.30
2019-04-22T09:00:39.756Z,48.30
2019-04-22T09:03:04.642Z,46.70
2019-04-22T09:13:10.225Z,47.50
2019-04-22T09:15:45.108Z,48.30
2019-04-22T09:18:17.627Z,48.50
2019-04-22T09:20:48.681Z,45.90
2019-04-22T09:23:17.702Z,45.40
2019-04-22T09:25:48.473Z,46.50
2019-04-22T09:28:23.069Z,47.10
2019-04-22T09:31:01.546Z,48.40
2019-04-22T09:36:33.897Z,47.20
2019-04-22T09:39:19.380Z,48.70
2019-04-22T09:41:33.759Z,47.80
2019-04-22T09:46:36.153Z,48.40
2019-04-22T09:49:06.446Z,46.70
2019-04-22T09:51:36.948Z,46.00
2019-04-22T09:59:07.729Z,45.80
2019-04-22T10:01:40.978Z,46.20
2019-04-22T10:04:25.365Z,45.50
2019-04-22T10:06:54.776Z,46.60
2019-04-22T10:09:34.356Z,46.40
2019-04-22T10:12:02.425Z,47.20
2019-04-22T10:14:23.911Z,46.70
2019-04-22T10:16:50.719Z,44.40
2019-04-22T10:19:23.243Z,44.40
2019-04-22T10:24:21.561Z,45.30
2019-04-22T10:26:59.994Z,43.90
2019-04-22T10:29:24.826Z,42.90
2019-04-22T10:34:16.864Z,43.30
2019-04-22T10:36:37.859Z,44.50
2019-04-22T10:39:08.555Z,46.30
2019-04-22T10:41:38.952Z,44.00
2019-04-22T10:44:09.031Z,45.10
2019-04-22T10:46:40.131Z,44.30
2019-04-22T10:49:10.470Z,42.90
2019-04-22T10:51:40.456Z,43.00
2019-04-22T10:54:11.355Z,43.40
2019-04-22T10:56:41.227Z,43.30
2019-04-22T10:59:10.973Z,44.70
2019-04-22T11:01:40.623Z,43.80
2019-04-22T11:04:11.194Z,43.70
2019-04-22T11:06:50.706Z,43.20
2019-04-22T11:09:12.884Z,41.40
2019-04-22T11:11:52.106Z,43.80
2019-04-22T11:14:16.753Z,43.30
2019-04-22T11:16:47.684Z,43.30
2019-04-22T11:19:17.443Z,42.60
2019-04-22T11:21:57.925Z,42.10
2019-04-22T11:24:18.853Z,42.30
2019-04-22T11:26:49.321Z,41.50
2019-04-22T11:29:19.547Z,42.50
2019-04-22T11:31:50.513Z,42.70
2019-04-22T11:34:21.327Z,43.20
2019-04-22T11:36:52.595Z,42.30
2019-04-22T11:39:23.708Z,42.60
2019-04-22T11:41:53.942Z,42.70
2019-04-22T11:44:25.282Z,43.50
2019-04-22T11:46:55.259Z,43.90
2019-04-22T11:49:25.851Z,41.00
2019-04-22T11:51:56.072Z,41.10
2019-04-22T11:54:25.903Z,40.80
2019-04-22T11:56:56.854Z,40.20
2019-04-22T11:59:26.819Z,41.10
2019-04-22T12:01:57.039Z,41.20
2019-04-22T12:04:27.644Z,39.30
2019-04-22T12:06:57.989Z,39.00
2019-04-22T12:09:28.037Z,39.50
2019-04-22T12:11:58.065Z,37.90
2019-04-22T12:14:27.981Z,37.00
2019-04-22T12:16:57.592Z,37.40
2019-04-22T12:19:27.212Z,37.50
2019-04-22T12:21:57.243Z,38.60
2019-04-22T12:24:28.107Z,36.20
2019-04-22T12:26:58.262Z,35.00
2019-04-22T12:29:28.966Z,36.70
2019-04-22T12:31:59.678Z,38.50
2019-04-22T12:34:29.436Z,37.50
2019-04-22T12:37:00.386Z,35.30
2019-04-22T12:39:31.517Z,37.00
2019-04-22T12:42:02.502Z,35.60
2019-04-22T12:44:32.736Z,36.00
2019-04-22T12:47:04.359Z,35.90
2019-04-22T12:49:36.995Z,35.30
2019-04-22T12:52:05.571Z,34.90
2019-04-22T12:54:37.331Z,36.10
2019-04-22T12:57:07.118Z,36.50
2019-04-22T12:59:37.401Z,35.30
2019-04-22T13:02:09.165Z,36.30
2019-04-22T13:04:40.441Z,35.60
2019-04-22T13:07:11.394Z,34.80
2019-04-22T13:09:41.315Z,35.70
2019-04-22T13:12:11.093Z,33.40
2019-04-22T13:14:41.038Z,34.90
2019-04-22T13:17:12.203Z,34.40
2019-04-22T13:19:42.444Z,35.60
2019-04-22T13:22:12.647Z,35.30
2019-04-22T13:24:43.865Z,34.80
2019-04-22T13:27:14.940Z,35.80
2019-04-22T13:29:46.611Z,35.70
2019-04-22T13:32:16.547Z,34.00
2019-04-22T13:34:51.522Z,34.60
2019-04-22T13:37:19.149Z,34.90
2019-04-22T13:39:52.722Z,32.90
2019-04-22T13:42:24.067Z,32.80
2019-04-22T13:44:54.027Z,34.60
2019-04-22T13:47:41.958Z,34.30
2019-04-22T13:50:28.295Z,34.10
2019-04-22T13:52:55.024Z,33.20
2019-04-22T13:55:27.270Z,32.50
2019-04-22T13:57:45.371Z,35.30
2019-04-22T14:00:02.244Z,34.00
2019-04-22T14:02:50.770Z,34.70
2019-04-22T14:05:22.432Z,34.10
2019-04-22T14:07:55.250Z,34.00
2019-04-22T14:10:24.858Z,34.60
2019-04-22T14:12:55.086Z,33.80
2019-04-22T14:15:25.064Z,33.20
2019-04-22T14:17:54.798Z,31.50
2019-04-22T14:20:27.710Z,32.30
2019-04-22T14:22:56.742Z,31.50
2019-04-22T14:25:26.499Z,30.30
2019-04-22T14:28:01.925Z,32.10
2019-04-22T14:30:28.602Z,31.80
2019-04-22T14:32:58.447Z,31.30
2019-04-22T14:35:29.164Z,30.90
2019-04-22T14:38:01.298Z,31.00
2019-04-22T14:41:00.862Z,30.50
2019-04-22T14:43:59.972Z,30.10
2019-04-22T14:46:30.211Z,30.70
2019-04-22T14:48:56.000Z,30.70
2019-04-22T14:51:25.483Z,31.30
2019-04-22T14:53:56.649Z,31.60
2019-04-22T14:56:08.559Z,30.70
2019-04-22T14:58:39.009Z,31.80
2019-04-22T15:01:10.777Z,32.70
2019-04-22T15:03:44.059Z,32.20
2019-04-22T15:06:12.619Z,31.90
2019-04-22T15:08:42.792Z,31.70
2019-04-22T15:11:13.106Z,31.90
2019-04-22T15:13:43.416Z,31.90
2019-04-22T15:16:46.941Z,31.80
2019-04-22T15:19:25.923Z,32.00
2019-04-22T15:21:56.806Z,31.30
2019-04-22T15:24:27.498Z,31.80
2019-04-22T15:26:58.742Z,32.30
2019-04-22T15:29:29.632Z,32.20
2019-04-22T15:47:24.967Z,35.20
2019-04-22T15:50:05.986Z,34.60
2019-04-22T15:52:40.707Z,34.60
2019-04-22T15:55:09.015Z,35.30
2019-04-22T15:57:39.885Z,34.40
2019-04-22T16:00:22.551Z,35.00
2019-04-22T16:02:41.465Z,34.80
2019-04-22T16:05:13.099Z,34.90
2019-04-22T16:07:43.966Z,35.10
2019-04-22T16:10:15.440Z,34.70
2019-04-22T16:12:56.480Z,35.10
2019-04-22T16:15:18.326Z,34.80
2019-04-22T16:17:48.845Z,35.30
2019-04-22T16:20:19.269Z,35.30
2019-04-22T16:23:13.347Z,35.70
2019-04-22T16:26:11.771Z,36.10
2019-04-22T16:28:43.058Z,36.50
2019-04-22T16:31:13.450Z,36.90
2019-04-22T16:33:45.684Z,37.10
2019-04-22T16:36:14.656Z,37.00
2019-04-22T16:38:45.007Z,37.10
2019-04-22T16:41:14.819Z,37.70
2019-04-22T16:43:44.703Z,37.50
2019-04-22T16:46:15.792Z,38.20
2019-04-22T16:48:45.725Z,38.10
2019-04-22T16:51:16.265Z,38.80
2019-04-22T16:53:47.362Z,39.00
2019-04-22T16:56:17.215Z,39.90
2019-04-22T16:58:46.815Z,40.50
2019-04-22T17:01:34.834Z,41.20
2019-04-22T17:04:14.575Z,41.50
2019-04-22T17:06:45.492Z,41.30
2019-04-22T17:09:17.485Z,42.30
2019-04-22T17:11:47.949Z,42.60
2019-04-22T17:14:25.420Z,43.00
2019-04-22T17:16:50.603Z,43.40
2019-04-22T17:19:21.667Z,43.70
2019-04-22T17:21:51.411Z,44.10
2019-04-22T17:24:21.637Z,44.60
2019-04-22T17:26:52.598Z,45.40
2019-04-22T17:29:22.813Z,45.00
2019-04-22T17:31:58.457Z,45.90
2019-04-22T17:34:23.796Z,45.70
2019-04-22T17:36:53.339Z,46.00
2019-04-22T17:39:35.947Z,46.10
2019-04-22T17:42:15.702Z,46.80
2019-04-22T17:44:48.076Z,47.50
2019-04-22T17:47:36.985Z,47.70
2019-04-22T17:50:20.270Z,47.90
2019-04-22T17:52:51.198Z,48.10
2019-04-22T17:55:21.396Z,48.30
2019-04-22T17:57:49.232Z,48.70
2019-04-22T18:00:19.035Z,49.30
2019-04-22T18:02:48.664Z,49.50
2019-04-22T18:05:09.216Z,49.80
2019-04-22T18:07:54.490Z,50.10
2019-04-22T18:10:32.900Z,50.40
2019-04-22T18:13:07.195Z,50.80
2019-04-22T18:15:35.334Z,51.10
2019-04-22T18:18:09.107Z,51.50
2019-04-22T18:20:29.331Z,51.90
2019-04-22T18:22:56.740Z,52.20
2019-04-22T18:25:34.095Z,52.60
2019-04-22T18:30:34.734Z,52.90
2019-04-22T18:33:12.970Z,53.10
2019-04-22T18:35:39.355Z,53.70
2019-04-22T18:38:28.018Z,53.60
2019-04-22T18:40:44.797Z,53.30
2019-04-22T18:43:26.079Z,53.50
2019-04-22T18:45:54.545Z,53.40
2019-04-22T18:48:15.352Z,53.40
2019-04-22T18:51:06.572Z,53.40
2019-04-22T18:53:53.803Z,53.80
2019-04-22T18:56:37.597Z,53.60
2019-04-22T18:58:54.922Z,53.70
2019-04-22T19:01:15.522Z,53.70
2019-04-22T19:03:55.230Z,54.10
2019-04-22T19:09:11.246Z,54.40
2019-04-22T19:11:43.391Z,54.60
2019-04-22T19:14:10.733Z,55.20
2019-04-22T19:17:07.093Z,55.20
2019-04-22T19:21:47.688Z,55.70
2019-04-22T19:24:14.949Z,56.00
2019-04-22T19:26:55.466Z,56.30
2019-04-22T19:29:18.621Z,56.30
2019-04-22T19:31:52.617Z,56.50
2019-04-22T19:34:20.595Z,56.50
2019-04-22T19:36:57.267Z,56.60
2019-04-22T19:39:22.785Z,57.60
2019-04-22T19:42:01.889Z,56.80
2019-04-22T19:44:34.267Z,57.10
2019-04-22T19:47:21.211Z,57.60
2019-04-22T19:49:38.298Z,57.50
2019-04-22T19:52:11.456Z,57.80
2019-04-22T19:54:40.703Z,57.90
2019-04-22T19:57:07.197Z,58.20
2019-04-22T19:59:42.674Z,58.00
2019-04-22T20:02:23.579Z,58.10
2019-04-22T20:05:11.081Z,58.50
2019-04-22T20:07:39.507Z,58.80
2019-04-22T20:10:19.099Z,58.90
2019-04-22T20:12:47.150Z,59.20
2019-04-22T20:15:14.234Z,59.70
2019-04-22T20:18:11.391Z,59.60
2019-04-22T20:20:22.799Z,60.00
2019-04-22T20:22:50.623Z,59.70
2019-04-22T20:25:14.568Z,60.00
2019-04-22T20:28:00.030Z,59.80
2019-04-22T20:30:29.978Z,60.00
2019-04-22T20:32:56.611Z,60.20
2019-04-22T20:35:32.735Z,60.40
2019-04-22T20:38:02.922Z,60.40
2019-04-22T20:40:33.157Z,60.80
2019-04-22T20:43:07.656Z,60.70
2019-04-22T20:45:39.986Z,60.90
2019-04-22T20:47:58.836Z,61.10
2019-04-22T20:50:41.236Z,61.40
2019-04-22T20:53:18.612Z,61.70
2019-04-22T20:55:41.976Z,61.60
2019-04-22T20:58:18.167Z,61.50
2019-04-22T21:00:45.331Z,61.90
2019-04-22T21:03:11.579Z,62.50
2019-04-22T21:05:44.490Z,62.60
2019-04-22T21:08:23.874Z,62.70
2019-04-22T21:10:45.592Z,63.10
2019-04-22T21:13:20.472Z,63.30
2019-04-22T21:16:04.083Z,63.60
2019-04-22T21:18:25.353Z,63.80
2019-04-22T21:21:02.542Z,64.20
2019-04-22T21:23:26.458Z,64.70
2019-04-22T21:26:02.307Z,65.00
2019-04-22T21:28:36.744Z,64.90
2019-04-22T21:31:05.806Z,65.10
2019-04-22T21:33:31.460Z,65.40
2019-04-22T21:36:16.856Z,65.70
2019-04-22T21:38:39.988Z,66.10
2019-04-22T21:41:12.941Z,66.30
2019-04-22T21:49:31.078Z,67.00
2019-04-22T21:51:58.423Z,67.40
2019-04-22T21:54:34.434Z,67.60
2019-04-22T21:57:35.622Z,67.40
2019-04-22T21:59:54.429Z,67.90
2019-04-22T22:02:39.297Z,68.20
2019-04-22T22:04:49.067Z,68.70
2019-04-22T22:07:13.225Z,68.90
2019-04-22T22:09:53.963Z,69.40
2019-04-22T22:12:34.991Z,69.60
2019-04-22T22:15:04.072Z,70.00
2019-04-22T22:17:31.208Z,70.20
2019-04-22T22:19:57.534Z,70.50
2019-04-22T22:22:45.494Z,70.40
2019-04-22T22:25:02.852Z,70.50
2019-04-22T22:27:37.184Z,71.10
2019-04-22T22:30:34.859Z,71.30
2019-04-22T22:32:40.743Z,70.90
2019-04-22T22:35:16.461Z,70.70
2019-04-22T22:37:37.520Z,71.00
2019-04-22T22:40:01.201Z,72.00
2019-04-22T22:42:33.620Z,71.40
2019-04-22T22:45:07.764Z,72.00
2019-04-22T22:47:44.590Z,72.30
2019-04-22T22:50:20.582Z,72.30
2019-04-22T22:53:00.900Z,73.00
2019-04-22T22:55:22.023Z,72.90
2019-04-22T22:58:01.354Z,73.30
2019-04-22T23:00:24.548Z,73.10
2019-04-22T23:03:17.075Z,74.00
2019-04-22T23:05:35.532Z,74.10
2019-04-22T23:08:01.977Z,74.00
2019-04-22T23:10:44.332Z,74.40
2019-04-22T23:13:08.593Z,74.40
2019-04-22T23:15:27.536Z,75.20
2019-04-22T23:17:45.889Z,74.70
2019-04-22T23:20:26.671Z,74.60
2019-04-22T23:23:14.321Z,74.70
2019-04-22T23:25:48.155Z,74.50
2019-04-22T23:28:30.052Z,74.40
2019-04-22T23:31:23.585Z,74.70
2019-04-22T23:34:02.911Z,74.40
2019-04-22T23:36:56.413Z,74.30
2019-04-22T23:39:33.323Z,74.70
2019-04-22T23:42:06.260Z,74.90
2019-04-22T23:44:31.929Z,74.60
2019-04-22T23:47:08.519Z,75.00
2019-04-22T23:49:43.195Z,75.40
2019-04-22T23:52:22.743Z,75.30
2019-04-22T23:54:58.740Z,75.60
2019-04-22T23:57:33.227Z,76.00
